Mirgab Vi — ZGAO4 — position and weather

sailwx.info

Track history (hours):
 
Tides and Currents Weather Stations Pressure Air Temp Water Temp Dewpoint Dewpoint Depression Visibility Wind Speed Wind Dir Waves Ship Positions

Mirgab Vi

Last reported at 2016-May-28 12:33 UTC. Time now 2016-May-30 12:35 UTC.
Position N 37°03' E 025°18'.

Length 49 m; draft 2.9 m.

Type: Pleasure craft. MMSI: 319394000.

Date/timePositionNaut miles runAvg speedWind from/ knotsBaromVisibWave heightAir tempDewpointWater temp
2016-May-28 12:33N 37°03' E 025°18'6 6.0
2016-May-28 11:33N 37°08' E 025°14'1 0.5
2016-May-28 10:33N 37°09' E 025°14'1 0.6
2016-May-28 09:03N 37°08' E 025°14'1 1.9
2016-May-28 08:31N 37°09' E 025°14'0 0.0
2016-May-28 07:28N 37°09' E 025°14'1 0.9
2016-May-28 06:20N 37°08' E 025°14'0 0.0
2016-May-28 02:32N 37°08' E 025°14'0 0.0
2016-May-27 20:32N 37°08' E 025°14'0 0.0
2016-May-27 19:23N 37°08' E 025°14'0 0.0
2016-May-27 17:29N 37°08' E 025°14'0 0.0
2016-May-27 14:33N 37°08' E 025°14'8 8.4
2016-May-27 13:33N 37°16' E 025°17'10 9.6
2016-May-27 12:33N 37°25' E 025°20'0 0.1
2016-May-27 11:31N 37°25' E 025°20'0 0.0
2016-May-27 10:31N 37°25' E 025°20'0 0.0
2016-May-27 09:31N 37°25' E 025°20'0 0.0
2016-May-27 08:33N 37°25' E 025°20'2 0.1
2016-May-26 07:26N 37°27' E 025°20'0 0.0
2016-May-25 02:06N 37°27' E 025°20'0 0.0
2016-May-24 23:27N 37°27' E 025°20'0 0.0
2016-May-24 22:06N 37°27' E 025°20'0 0.0
2016-May-24 20:06N 37°27' E 025°20'0 0.0
2016-May-23 14:12N 37°27' E 025°20'0 0.0
2016-May-23 12:24N 37°27' E 025°20'0 0.0
2016-May-23 11:18N 37°27' E 025°20'0 0.0
2016-May-23 08:24N 37°27' E 025°20'0 0.0
2016-May-23 07:30N 37°27' E 025°20'0 0.0
2016-May-23 06:30N 37°27' E 025°20'0 0.0
2016-May-23 05:30N 37°27' E 025°20'0 0.0
2016-May-23 04:30N 37°27' E 025°20'0 0.0
2016-May-23 03:30N 37°27' E 025°20'0 0.0
2016-May-23 02:33N 37°27' E 025°20'0 0.0
2016-May-23 01:33N 37°27' E 025°20'0 0.0
2016-May-23 00:30N 37°27' E 025°20'0 0.0
2016-May-22 23:30N 37°27' E 025°20'0 0.0
2016-May-22 22:30N 37°27' E 025°20'0 0.0
2016-May-22 21:30N 37°27' E 025°20'0 0.0
2016-May-22 20:33N 37°27' E 025°20'0 0.0
2016-May-22 19:30N 37°27' E 025°20'0 0.0
2016-May-22 18:30N 37°27' E 025°20'0 0.0
2016-May-22 17:33N 37°27' E 025°20'0 0.0
2016-May-22 16:30N 37°27' E 025°20'0 0.0
2016-May-22 15:33N 37°27' E 025°20'0 0.0
2016-May-22 14:30N 37°27' E 025°20'0 0.0
2016-May-22 13:24N 37°27' E 025°20'0 0.0
2016-May-22 12:30N 37°27' E 025°20'0 0.0
2016-May-22 11:30N 37°27' E 025°20'0 0.0
2016-May-22 10:24N 37°27' E 025°20'0 0.0
2016-May-22 07:24N 37°27' E 025°20'0 0.0
2016-May-22 06:09N 37°27' E 025°20'0 0.0
2016-May-20 13:18N 37°27' E 025°20'3 4.0
2016-May-20 12:33N 37°24' E 025°20'1 0.6
2016-May-20 11:22N 37°25' E 025°20'0 0.0
2016-May-20 10:25N 37°25' E 025°20'0 0.0
2016-May-20 09:31N 37°25' E 025°20'0 0.0
2016-May-20 08:31N 37°25' E 025°20'2 1.8
2016-May-20 07:33N 37°23' E 025°19'4 0.2
2016-May-19 14:16N 37°27' E 025°20'6 8.0
2016-May-19 13:34N 37°22' E 025°17'1211.6
2016-May-19 12:34N 37°10' E 025°15'2 1.9
2016-May-19 11:33N 37°09' E 025°14'0 0.0
2016-May-19 10:33N 37°09' E 025°14'0 0.0
2016-May-19 09:33N 37°09' E 025°14'0 0.0
2016-May-19 07:10N 37°09' E 025°14'1 0.3
2016-May-19 04:24N 37°08' E 025°14'0 0.0
2016-May-19 03:30N 37°08' E 025°14'0 0.0
2016-May-19 02:30N 37°08' E 025°14'0 0.0
2016-May-19 00:30N 37°08' E 025°14'0 0.0
2016-May-18 23:33N 37°08' E 025°14'0 0.0
2016-May-18 22:33N 37°08' E 025°14'0 0.0
2016-May-18 21:33N 37°08' E 025°14'0 0.0
2016-May-18 20:27N 37°08' E 025°14'0 0.0
2016-May-18 19:21N 37°08' E 025°14'0 0.0
2016-May-18 17:27N 37°08' E 025°14'0 0.0
2016-May-18 16:33N 37°08' E 025°14'4 3.8
2016-May-18 15:33N 37°10' E 025°18'1010.3
2016-May-18 14:33N 36°60' E 025°15'1 0.7
2016-May-18 13:32N 37°00' E 025°14'  
Track history (hours):
 
Tides and Currents Weather Stations Pressure Air Temp Water Temp Dewpoint Dewpoint Depression Visibility Wind Speed Wind Dir Waves Ship Positions

Mirgab Vi

Last reported at 2016-May-28 12:33 UTC. Time now 2016-May-30 12:35 UTC.
Position N 37°03' E 025°18'.

Length 49 m; draft 2.9 m.

Type: Pleasure craft. MMSI: 319394000.

Date/timePositionNaut miles runAvg speedWind from/ knotsBaromVisibWave heightAir tempDewpointWater temp
2016-May-28 12:33N 37°03' E 025°18'6 6.0
2016-May-28 11:33N 37°08' E 025°14'1 0.5
2016-May-28 10:33N 37°09' E 025°14'1 0.6
2016-May-28 09:03N 37°08' E 025°14'1 1.9
2016-May-28 08:31N 37°09' E 025°14'0 0.0
2016-May-28 07:28N 37°09' E 025°14'1 0.9
2016-May-28 06:20N 37°08' E 025°14'0 0.0
2016-May-28 02:32N 37°08' E 025°14'0 0.0
2016-May-27 20:32N 37°08' E 025°14'0 0.0
2016-May-27 19:23N 37°08' E 025°14'0 0.0
2016-May-27 17:29N 37°08' E 025°14'0 0.0
2016-May-27 14:33N 37°08' E 025°14'8 8.4
2016-May-27 13:33N 37°16' E 025°17'10 9.6
2016-May-27 12:33N 37°25' E 025°20'0 0.1
2016-May-27 11:31N 37°25' E 025°20'0 0.0
2016-May-27 10:31N 37°25' E 025°20'0 0.0
2016-May-27 09:31N 37°25' E 025°20'0 0.0
2016-May-27 08:33N 37°25' E 025°20'2 0.1
2016-May-26 07:26N 37°27' E 025°20'0 0.0
2016-May-25 02:06N 37°27' E 025°20'0 0.0
2016-May-24 23:27N 37°27' E 025°20'0 0.0
2016-May-24 22:06N 37°27' E 025°20'0 0.0
2016-May-24 20:06N 37°27' E 025°20'0 0.0
2016-May-23 14:12N 37°27' E 025°20'0 0.0
2016-May-23 12:24N 37°27' E 025°20'0 0.0
2016-May-23 11:18N 37°27' E 025°20'0 0.0
2016-May-23 08:24N 37°27' E 025°20'0 0.0
2016-May-23 07:30N 37°27' E 025°20'0 0.0
2016-May-23 06:30N 37°27' E 025°20'0 0.0
2016-May-23 05:30N 37°27' E 025°20'0 0.0
2016-May-23 04:30N 37°27' E 025°20'0 0.0
2016-May-23 03:30N 37°27' E 025°20'0 0.0
2016-May-23 02:33N 37°27' E 025°20'0 0.0
2016-May-23 01:33N 37°27' E 025°20'0 0.0
2016-May-23 00:30N 37°27' E 025°20'0 0.0
2016-May-22 23:30N 37°27' E 025°20'0 0.0
2016-May-22 22:30N 37°27' E 025°20'0 0.0
2016-May-22 21:30N 37°27' E 025°20'0 0.0
2016-May-22 20:33N 37°27' E 025°20'0 0.0
2016-May-22 19:30N 37°27' E 025°20'0 0.0
2016-May-22 18:30N 37°27' E 025°20'0 0.0
2016-May-22 17:33N 37°27' E 025°20'0 0.0
2016-May-22 16:30N 37°27' E 025°20'0 0.0
2016-May-22 15:33N 37°27' E 025°20'0 0.0
2016-May-22 14:30N 37°27' E 025°20'0 0.0
2016-May-22 13:24N 37°27' E 025°20'0 0.0
2016-May-22 12:30N 37°27' E 025°20'0 0.0
2016-May-22 11:30N 37°27' E 025°20'0 0.0
2016-May-22 10:24N 37°27' E 025°20'0 0.0
2016-May-22 07:24N 37°27' E 025°20'0 0.0
2016-May-22 06:09N 37°27' E 025°20'0 0.0
2016-May-20 13:18N 37°27' E 025°20'3 4.0
2016-May-20 12:33N 37°24' E 025°20'1 0.6
2016-May-20 11:22N 37°25' E 025°20'0 0.0
2016-May-20 10:25N 37°25' E 025°20'0 0.0
2016-May-20 09:31N 37°25' E 025°20'0 0.0
2016-May-20 08:31N 37°25' E 025°20'2 1.8
2016-May-20 07:33N 37°23' E 025°19'4 0.2
2016-May-19 14:16N 37°27' E 025°20'6 8.0
2016-May-19 13:34N 37°22' E 025°17'1211.6
2016-May-19 12:34N 37°10' E 025°15'2 1.9
2016-May-19 11:33N 37°09' E 025°14'0 0.0
2016-May-19 10:33N 37°09' E 025°14'0 0.0
2016-May-19 09:33N 37°09' E 025°14'0 0.0
2016-May-19 07:10N 37°09' E 025°14'1 0.3
2016-May-19 04:24N 37°08' E 025°14'0 0.0
2016-May-19 03:30N 37°08' E 025°14'0 0.0
2016-May-19 02:30N 37°08' E 025°14'0 0.0
2016-May-19 00:30N 37°08' E 025°14'0 0.0
2016-May-18 23:33N 37°08' E 025°14'0 0.0
2016-May-18 22:33N 37°08' E 025°14'0 0.0
2016-May-18 21:33N 37°08' E 025°14'0 0.0
2016-May-18 20:27N 37°08' E 025°14'0 0.0
2016-May-18 19:21N 37°08' E 025°14'0 0.0
2016-May-18 17:27N 37°08' E 025°14'0 0.0
2016-May-18 16:33N 37°08' E 025°14'4 3.8
2016-May-18 15:33N 37°10' E 025°18'1010.3
2016-May-18 14:33N 36°60' E 025°15'1 0.7
2016-May-18 13:32N 37°00' E 025°14'  

Dump ship's entire track history